Time;durP1;ratioP1;P1;durP2;ratioP2;P2;SDS_P1;SDS_P2;PMS_P1;PMS_P2;Temp;Humidity;BMP_temperature;BMP_pressure;BME280_temperature;BME280_humidity;BME280_pressure;Samples;Min_cycle;Max_cycle;Signal;HPM_P1;HPM_P2
2022/10/29 00:00:37;;;;;;;11.05;3.38;;;15.00;99.90;;;;;;5072793;28;20016;-42
2022/10/29 00:03:03;;;;;;;16.85;3.25;;;15.00;99.90;;;;;;5064049;28;20119;-43
2022/10/29 00:05:28;;;;;;;17.60;3.10;;;15.00;99.90;;;;;;5072694;28;20085;-40
2022/10/29 00:07:54;;;;;;;8.50;3.33;;;15.00;99.90;;;;;;5073480;28;20849;-41
2022/10/29 00:10:19;;;;;;;13.38;2.88;;;15.00;99.90;;;;;;5071175;28;21284;-42
2022/10/29 00:12:45;;;;;;;16.00;3.30;;;15.10;99.90;;;;;;5074890;28;20024;-39
2022/10/29 00:15:11;;;;;;;13.68;3.88;;;15.10;99.90;;;;;;5075516;28;20024;-37
2022/10/29 00:17:37;;;;;;;13.02;2.88;;;15.10;99.90;;;;;;5073135;28;20024;-39
2022/10/29 00:20:03;;;;;;;10.27;2.80;;;15.00;99.90;;;;;;5074536;28;20107;-43
2022/10/29 00:22:28;;;;;;;12.68;2.83;;;15.00;99.90;;;;;;5074703;28;20488;-35
2022/10/29 00:24:54;;;;;;;18.67;3.65;;;15.00;99.90;;;;;;5071410;28;20031;-42
2022/10/29 00:27:19;;;;;;;16.48;2.85;;;15.00;99.90;;;;;;5071602;28;20467;-44
2022/10/29 00:29:45;;;;;;;17.30;3.30;;;14.90;99.90;;;;;;5080560;28;20032;-40
2022/10/29 00:32:11;;;;;;;18.63;3.08;;;14.90;99.90;;;;;;5072202;28;20528;-40
2022/10/29 00:34:37;;;;;;;13.60;3.38;;;14.90;99.90;;;;;;5078355;28;20027;-42
2022/10/29 00:37:03;;;;;;;12.35;2.78;;;14.90;99.90;;;;;;5072495;28;20435;-56
2022/10/29 00:39:29;;;;;;;16.42;3.38;;;14.90;99.90;;;;;;5069958;28;20491;-42
2022/10/29 00:41:55;;;;;;;8.30;2.97;;;14.90;99.90;;;;;;5089619;28;20032;-41
2022/10/29 00:44:27;;;;;;;12.85;4.00;;;14.90;99.90;;;;;;5070557;28;20480;-44
2022/10/29 00:47:09;;;;;;;16.08;3.25;;;14.90;99.90;;;;;;5072800;28;20032;-38
2022/10/29 00:49:54;;;;;;;6.22;2.72;;;14.90;99.90;;;;;;5075265;28;20037;-42
2022/10/29 00:52:22;;;;;;;8.13;2.75;;;14.80;99.90;;;;;;5077186;28;20082;-41
2022/10/29 00:54:49;;;;;;;12.00;3.47;;;14.80;99.90;;;;;;5089166;28;20051;-35
2022/10/29 00:57:20;;;;;;;16.30;3.20;;;14.70;99.90;;;;;;5092743;28;20024;-34
2022/10/29 00:59:48;;;;;;;18.02;2.90;;;14.70;99.90;;;;;;5080904;28;20093;-38
2022/10/29 01:02:14;;;;;;;8.90;3.00;;;14.60;99.90;;;;;;5088517;28;20028;-32
2022/10/29 01:04:41;;;;;;;13.05;3.53;;;14.60;99.90;;;;;;5093471;28;20030;-35
2022/10/29 01:07:07;;;;;;;15.68;3.65;;;14.60;99.90;;;;;;5075622;28;20033;-32
2022/10/29 01:09:32;;;;;;;12.48;2.53;;;14.60;99.90;;;;;;5067814;28;20387;-34
2022/10/29 01:12:27;;;;;;;11.02;2.83;;;14.60;99.90;;;;;;5069238;28;20111;-35
2022/10/29 01:15:31;;;;;;;12.32;3.55;;;14.60;99.90;;;;;;5071314;28;20495;-44
2022/10/29 01:18:10;;;;;;;8.73;3.92;;;14.60;99.90;;;;;;5066372;28;20024;-40
2022/10/29 01:21:06;;;;;;;19.58;3.35;;;14.60;99.90;;;;;;5077874;28;20491;-40
2022/10/29 01:23:58;;;;;;;13.23;3.50;;;14.60;99.90;;;;;;5072545;28;20027;-52
2022/10/29 01:26:43;;;;;;;10.57;3.28;;;14.60;99.90;;;;;;5068863;28;20407;-36
2022/10/29 01:29:08;;;;;;;13.07;3.80;;;14.50;99.90;;;;;;5066318;28;20496;-43
2022/10/29 01:31:35;;;;;;;11.15;3.47;;;14.50;99.90;;;;;;5068185;28;20032;-33
2022/10/29 01:34:14;;;;;;;6.03;2.40;;;14.50;99.90;;;;;;5064964;28;20036;-40
2022/10/29 01:36:43;;;;;;;10.48;3.10;;;14.50;99.90;;;;;;5070669;28;20024;-39
2022/10/29 01:39:26;;;;;;;12.15;3.53;;;14.50;99.90;;;;;;5065764;28;20029;-36
2022/10/29 01:42:12;;;;;;;12.77;4.25;;;14.50;99.90;;;;;;5067008;28;20108;-36
2022/10/29 01:44:42;;;;;;;11.70;3.40;;;14.60;99.90;;;;;;5068557;28;20031;-33
2022/10/29 01:47:23;;;;;;;12.18;4.32;;;14.60;99.90;;;;;;5072274;28;20412;-35
2022/10/29 01:49:56;;;;;;;18.23;4.47;;;14.60;99.90;;;;;;5066766;28;20036;-33
2022/10/29 01:52:23;;;;;;;7.88;4.03;;;14.60;99.90;;;;;;5070230;28;20486;-35
2022/10/29 01:54:50;;;;;;;19.63;4.95;;;14.60;99.90;;;;;;5084615;28;20306;-36
2022/10/29 01:57:42;;;;;;;13.93;4.07;;;14.60;99.90;;;;;;5086571;28;20081;-37
2022/10/29 02:00:12;;;;;;;12.63;4.35;;;14.60;99.90;;;;;;5086038;28;20061;-40
2022/10/29 02:02:38;;;;;;;12.57;4.45;;;14.60;99.90;;;;;;5088887;28;20039;-35
2022/10/29 02:05:20;;;;;;;17.85;5.32;;;14.60;99.90;;;;;;5087103;28;20038;-38
2022/10/29 02:07:58;;;;;;;11.18;3.90;;;14.60;99.90;;;;;;5089760;28;20027;-40
2022/10/29 02:10:32;;;;;;;19.08;4.93;;;14.60;99.90;;;;;;5093921;28;20479;-39
2022/10/29 02:12:59;;;;;;;8.85;3.75;;;14.50;99.90;;;;;;5086864;28;20035;-36
2022/10/29 02:15:41;;;;;;;14.02;4.90;;;14.40;99.90;;;;;;5087420;28;20093;-38
2022/10/29 02:18:07;;;;;;;8.55;4.65;;;14.40;99.90;;;;;;5087605;28;20098;-34
2022/10/29 02:20:33;;;;;;;14.63;5.25;;;14.40;99.90;;;;;;5086088;28;20046;-33
2022/10/29 02:22:59;;;;;;;13.10;5.32;;;14.40;99.90;;;;;;5096982;28;20033;-34
2022/10/29 02:25:26;;;;;;;13.40;4.85;;;14.40;99.90;;;;;;5111236;28;20027;-36
2022/10/29 02:27:52;;;;;;;12.43;4.73;;;14.40;99.90;;;;;;5094406;28;20523;-34
2022/10/29 02:30:18;;;;;;;14.85;4.63;;;14.30;99.90;;;;;;5090376;28;20040;-36
2022/10/29 02:32:43;;;;;;;16.70;4.93;;;14.30;99.90;;;;;;5091193;28;20036;-40
2022/10/29 02:35:09;;;;;;;8.32;4.32;;;14.20;99.90;;;;;;5103230;28;20019;-35
2022/10/29 02:37:35;;;;;;;8.32;5.03;;;14.20;99.90;;;;;;5094623;28;20023;-43
2022/10/29 02:40:02;;;;;;;11.95;5.38;;;14.20;99.90;;;;;;5102039;28;21284;-34
2022/10/29 02:42:28;;;;;;;16.75;5.35;;;14.20;99.90;;;;;;5106509;28;20394;-37
2022/10/29 02:44:53;;;;;;;13.18;4.90;;;14.10;99.90;;;;;;5115731;28;20106;-34
2022/10/29 02:47:19;;;;;;;19.17;5.70;;;14.10;99.90;;;;;;5113194;28;20019;-35
2022/10/29 02:49:44;;;;;;;20.08;5.60;;;14.10;99.90;;;;;;5097405;28;20678;-32
2022/10/29 02:52:10;;;;;;;20.55;6.25;;;14.10;99.90;;;;;;5104692;28;20023;-39
2022/10/29 02:54:37;;;;;;;23.05;7.40;;;14.10;99.90;;;;;;5091843;28;20040;-34
2022/10/29 02:57:04;;;;;;;26.00;8.10;;;14.10;99.90;;;;;;5099878;28;20020;-35
2022/10/29 02:59:29;;;;;;;17.15;6.78;;;14.20;99.90;;;;;;5099973;28;20024;-37
2022/10/29 03:01:55;;;;;;;19.20;7.43;;;14.20;99.90;;;;;;5099475;28;20077;-40
2022/10/29 03:04:20;;;;;;;17.30;7.38;;;14.20;99.90;;;;;;5116436;28;20032;-41
2022/10/29 03:06:46;;;;;;;15.00;7.53;;;14.20;99.90;;;;;;5102284;28;20106;-34
2022/10/29 03:09:11;;;;;;;12.98;6.63;;;14.20;99.90;;;;;;5097091;28;22206;-35
2022/10/29 03:11:37;;;;;;;15.57;6.68;;;14.20;99.90;;;;;;5104112;28;20027;-39
2022/10/29 03:14:03;;;;;;;13.32;7.07;;;14.20;99.90;;;;;;5099233;28;20023;-42
2022/10/29 03:16:28;;;;;;;12.65;6.47;;;14.10;99.90;;;;;;5112209;28;20388;-42
2022/10/29 03:18:54;;;;;;;9.45;5.57;;;14.00;99.90;;;;;;5094467;28;20059;-41
2022/10/29 03:21:19;;;;;;;12.48;6.47;;;13.90;99.90;;;;;;5099961;28;20474;-41
2022/10/29 03:23:46;;;;;;;12.02;6.80;;;13.90;99.90;;;;;;5104159;28;20052;-39
2022/10/29 03:26:11;;;;;;;13.25;6.80;;;13.80;99.90;;;;;;5103159;28;20068;-40
2022/10/29 03:28:37;;;;;;;11.30;6.53;;;13.80;99.90;;;;;;5114699;28;20027;-40
2022/10/29 03:31:03;;;;;;;10.18;5.63;;;13.80;99.90;;;;;;5101532;28;20038;-39
2022/10/29 03:33:28;;;;;;;11.02;6.20;;;13.90;99.90;;;;;;5095844;28;20066;-48
2022/10/29 03:35:56;;;;;;;10.45;6.75;;;13.90;99.90;;;;;;5093406;28;20020;-41
2022/10/29 03:38:22;;;;;;;14.65;6.13;;;13.80;99.90;;;;;;5109865;28;20063;-44
2022/10/29 03:40:47;;;;;;;11.65;5.80;;;13.90;99.90;;;;;;5115352;28;20408;-44
2022/10/29 03:43:13;;;;;;;15.18;6.90;;;13.80;99.90;;;;;;5106407;28;20055;-41
2022/10/29 03:45:39;;;;;;;9.93;6.20;;;13.80;99.90;;;;;;5094859;28;20480;-48
2022/10/29 03:48:05;;;;;;;11.50;5.85;;;13.80;99.90;;;;;;5095275;28;20032;-41
2022/10/29 03:50:30;;;;;;;10.93;6.47;;;13.80;99.90;;;;;;5099634;28;20019;-41
2022/10/29 03:52:56;;;;;;;16.65;6.88;;;13.80;99.90;;;;;;5112946;27;20054;-65
2022/10/29 03:55:21;;;;;;;12.50;6.70;;;13.90;99.90;;;;;;5107759;28;20016;-38
2022/10/29 03:57:47;;;;;;;11.00;6.13;;;14.00;99.90;;;;;;5099181;28;20264;-36
2022/10/29 04:00:13;;;;;;;8.80;5.75;;;14.10;99.90;;;;;;5107630;28;20483;-37
2022/10/29 04:02:39;;;;;;;7.20;5.32;;;14.10;99.90;;;;;;5094304;28;20525;-37
2022/10/29 04:05:04;;;;;;;9.18;6.10;;;14.10;99.90;;;;;;5107768;28;20027;-37
2022/10/29 04:07:30;;;;;;;10.73;5.70;;;14.00;99.90;;;;;;5095232;28;20032;-36
2022/10/29 04:09:55;;;;;;;9.43;5.85;;;14.10;99.90;;;;;;5094811;28;20028;-37
2022/10/29 04:12:21;;;;;;;9.43;5.90;;;14.10;99.90;;;;;;5094182;28;20039;-35
2022/10/29 04:14:47;;;;;;;8.32;4.97;;;14.10;99.90;;;;;;5094366;28;20027;-34
2022/10/29 04:17:13;;;;;;;9.13;5.40;;;14.00;99.90;;;;;;5105426;28;20499;-34
2022/10/29 04:19:39;;;;;;;8.57;5.60;;;13.90;99.90;;;;;;5111521;28;20082;-33
2022/10/29 04:22:05;;;;;;;9.32;5.75;;;13.90;99.90;;;;;;5095644;28;20027;-36
2022/10/29 04:24:30;;;;;;;8.10;5.85;;;13.90;99.90;;;;;;5094518;28;20539;-37
2022/10/29 04:26:56;;;;;;;9.63;6.30;;;13.80;99.90;;;;;;5094095;28;20038;-34
2022/10/29 04:29:21;;;;;;;9.95;5.90;;;13.70;99.90;;;;;;5096112;28;20492;-34
2022/10/29 04:31:48;;;;;;;8.43;4.70;;;13.80;99.90;;;;;;5102748;28;20043;-34
2022/10/29 04:34:14;;;;;;;10.95;5.55;;;13.80;99.90;;;;;;5094122;28;20035;-38
2022/10/29 04:36:39;;;;;;;12.68;7.35;;;13.90;99.90;;;;;;5102632;28;20099;-34
2022/10/29 04:39:05;;;;;;;12.57;5.53;;;13.90;99.90;;;;;;5094189;28;20069;-35
2022/10/29 04:41:31;;;;;;;9.50;5.65;;;13.90;99.90;;;;;;5109062;28;20040;-32
2022/10/29 04:43:56;;;;;;;12.70;5.63;;;13.90;99.90;;;;;;5099543;28;20028;-41
2022/10/29 04:46:22;;;;;;;9.60;5.63;;;13.90;99.90;;;;;;5097540;28;20024;-42
2022/10/29 04:48:47;;;;;;;9.77;5.97;;;14.00;99.90;;;;;;5093636;28;20030;-40
2022/10/29 04:51:31;;;;;;;15.32;6.00;;;14.00;99.90;;;;;;5099885;28;20026;-42
2022/10/29 04:53:56;;;;;;;9.63;5.50;;;14.20;99.90;;;;;;5096354;28;20090;-41
2022/10/29 04:56:22;;;;;;;11.43;5.50;;;14.20;99.90;;;;;;5101214;28;20494;-42
2022/10/29 04:58:51;;;;;;;17.92;6.60;;;14.20;99.90;;;;;;5102012;28;20036;-42
2022/10/29 05:01:17;;;;;;;9.13;5.38;;;14.10;99.90;;;;;;5111981;28;20106;-43
2022/10/29 05:03:42;;;;;;;13.18;6.57;;;14.00;99.90;;;;;;5113546;28;20243;-39
2022/10/29 05:06:26;;;;;;;10.45;5.30;;;14.10;99.90;;;;;;5095968;28;20028;-35
2022/10/29 05:08:52;;;;;;;11.75;5.82;;;14.10;99.90;;;;;;5093656;28;20028;-35
2022/10/29 05:11:17;;;;;;;13.25;5.70;;;14.10;99.90;;;;;;5093234;28;20498;-41
2022/10/29 05:13:44;;;;;;;11.00;5.57;;;14.00;99.90;;;;;;5093628;28;20028;-42
2022/10/29 05:16:09;;;;;;;9.30;5.80;;;14.00;99.90;;;;;;5100521;28;20073;-53
2022/10/29 05:18:36;;;;;;;15.40;5.95;;;14.00;99.90;;;;;;5112856;28;20024;-34
2022/10/29 05:21:02;;;;;;;8.82;6.00;;;13.90;99.90;;;;;;5097481;28;20416;-39
2022/10/29 05:23:28;;;;;;;17.27;5.65;;;13.90;99.90;;;;;;5109376;28;20564;-41
2022/10/29 05:25:54;;;;;;;7.53;5.07;;;13.90;99.90;;;;;;5093512;28;20021;-42
2022/10/29 05:28:22;;;;;;;6.38;4.43;;;13.90;99.90;;;;;;5093441;28;20032;-40
2022/10/29 05:30:49;;;;;;;8.73;5.50;;;13.90;99.90;;;;;;5091198;28;20399;-41
2022/10/29 05:33:17;;;;;;;9.43;5.30;;;13.90;99.90;;;;;;5101506;28;20033;-40
2022/10/29 05:35:43;;;;;;;9.43;5.82;;;13.90;99.90;;;;;;5092721;28;20107;-41
2022/10/29 05:38:10;;;;;;;9.45;6.13;;;13.80;99.90;;;;;;5106495;28;20348;-41
2022/10/29 05:40:36;;;;;;;9.77;5.32;;;13.80;99.90;;;;;;5101522;28;20067;-40
2022/10/29 05:43:02;;;;;;;9.68;5.88;;;13.80;99.90;;;;;;5105880;28;20459;-38
2022/10/29 05:45:28;;;;;;;11.35;6.10;;;13.80;99.90;;;;;;5111291;28;20108;-37
2022/10/29 05:47:58;;;;;;;11.23;6.20;;;13.80;99.90;;;;;;5098626;28;20103;-38
2022/10/29 05:50:24;;;;;;;9.68;5.75;;;13.90;99.90;;;;;;5101830;28;20023;-41
2022/10/29 05:52:55;;;;;;;8.57;6.22;;;14.00;99.90;;;;;;5092353;28;20040;-36
2022/10/29 05:55:21;;;;;;;9.85;6.35;;;14.00;99.90;;;;;;5091224;28;20021;-39
2022/10/29 05:57:46;;;;;;;14.43;7.57;;;14.10;99.90;;;;;;5096850;28;20026;-44
2022/10/29 06:00:12;;;;;;;14.73;7.00;;;14.20;99.90;;;;;;5093429;28;20480;-39
2022/10/29 06:02:38;;;;;;;16.10;7.13;;;14.20;99.90;;;;;;5102922;28;20040;-42
2022/10/29 06:05:04;;;;;;;16.20;8.02;;;14.30;99.90;;;;;;5107142;28;20019;-43
2022/10/29 06:07:29;;;;;;;12.85;7.35;;;14.30;99.90;;;;;;5113076;28;20023;-38
2022/10/29 06:09:55;;;;;;;14.57;7.53;;;14.30;99.90;;;;;;5105090;28;20532;-40
2022/10/29 06:12:20;;;;;;;13.30;7.97;;;14.40;99.90;;;;;;5092765;28;20035;-40
2022/10/29 06:14:46;;;;;;;12.73;8.00;;;14.40;99.90;;;;;;5094895;28;20507;-38
2022/10/29 06:17:11;;;;;;;14.52;7.85;;;14.50;99.90;;;;;;5092771;28;20467;-33
2022/10/29 06:19:37;;;;;;;14.80;8.00;;;14.60;99.90;;;;;;5091283;28;20031;-38
2022/10/29 06:22:03;;;;;;;20.40;7.85;;;14.60;99.90;;;;;;5097278;28;20480;-35
2022/10/29 06:24:30;;;;;;;12.55;7.75;;;14.70;99.90;;;;;;5104349;28;20468;-34
2022/10/29 06:26:55;;;;;;;12.52;7.00;;;14.70;99.90;;;;;;5093754;28;20038;-39
2022/10/29 06:29:21;;;;;;;17.08;7.15;;;14.70;99.90;;;;;;5103807;28;20107;-43
2022/10/29 06:31:46;;;;;;;11.70;7.30;;;14.70;99.90;;;;;;5100731;28;20032;-42
2022/10/29 06:34:13;;;;;;;16.00;7.53;;;14.70;99.90;;;;;;5106720;28;20039;-40
2022/10/29 06:36:39;;;;;;;17.90;8.18;;;14.70;99.90;;;;;;5110750;28;20023;-41
2022/10/29 06:39:04;;;;;;;15.52;7.28;;;14.70;99.90;;;;;;5100385;28;20028;-53
2022/10/29 06:41:30;;;;;;;15.65;7.70;;;14.80;99.90;;;;;;5096654;28;20521;-54
2022/10/29 06:43:56;;;;;;;12.70;6.63;;;14.80;99.90;;;;;;5113017;28;20104;-41
2022/10/29 06:46:21;;;;;;;22.40;7.35;;;14.80;99.90;;;;;;5095778;28;20031;-40
2022/10/29 06:48:47;;;;;;;10.68;6.45;;;14.80;99.90;;;;;;5100868;28;20031;-45
2022/10/29 06:51:12;;;;;;;13.52;6.80;;;14.90;99.90;;;;;;5099436;28;20081;-43
2022/10/29 06:53:38;;;;;;;15.38;6.70;;;14.90;99.90;;;;;;5109385;28;20036;-33
2022/10/29 06:56:04;;;;;;;16.40;7.13;;;14.80;99.90;;;;;;5095707;28;20530;-38
2022/10/29 06:58:29;;;;;;;14.20;7.18;;;14.80;99.90;;;;;;5099559;28;20365;-37
2022/10/29 07:01:13;;;;;;;10.88;6.65;;;14.80;99.90;;;;;;5103792;28;20055;-37
2022/10/29 07:03:39;;;;;;;10.80;5.63;;;14.80;99.90;;;;;;5104416;28;20030;-38
2022/10/29 07:06:05;;;;;;;17.60;6.93;;;14.80;99.90;;;;;;5105328;28;20106;-37
2022/10/29 07:08:32;;;;;;;13.82;7.35;;;14.80;99.90;;;;;;5107490;28;20027;-38
2022/10/29 07:10:57;;;;;;;14.23;6.07;;;14.90;99.90;;;;;;5110899;28;20031;-35
2022/10/29 07:13:23;;;;;;;10.95;5.75;;;14.90;99.90;;;;;;5097366;28;20118;-41
2022/10/29 07:15:48;;;;;;;13.80;6.50;;;15.00;99.90;;;;;;5095712;28;20019;-41
2022/10/29 07:18:14;;;;;;;14.60;6.60;;;15.10;99.90;;;;;;5099569;28;20070;-42
2022/10/29 07:20:42;;;;;;;16.63;6.75;;;15.20;99.90;;;;;;5094608;28;20029;-41
2022/10/29 07:23:09;;;;;;;12.27;6.47;;;15.20;99.90;;;;;;5098319;28;20476;-42
2022/10/29 07:25:36;;;;;;;9.97;6.47;;;15.30;99.90;;;;;;5094744;28;20024;-41
2022/10/29 07:28:11;;;;;;;12.45;6.63;;;15.40;99.90;;;;;;5096385;28;20389;-42
2022/10/29 07:30:37;;;;;;;14.65;7.53;;;15.50;99.90;;;;;;5101702;28;20024;-43
2022/10/29 07:33:02;;;;;;;20.95;7.90;;;15.50;99.90;;;;;;5098974;28;20028;-49
2022/10/29 07:35:28;;;;;;;16.30;7.05;;;15.60;99.90;;;;;;5103768;28;20065;-41
2022/10/29 07:37:59;;;;;;;19.27;8.50;;;15.60;99.90;;;;;;5105850;28;20483;-42
2022/10/29 07:40:24;;;;;;;22.17;8.43;;;15.70;99.90;;;;;;5094676;28;20024;-44
2022/10/29 07:42:53;;;;;;;18.45;7.60;;;15.80;99.90;;;;;;5095455;28;20031;-42
2022/10/29 07:45:20;;;;;;;25.40;9.05;;;15.90;99.90;;;;;;5112521;28;20020;-44
2022/10/29 07:47:45;;;;;;;28.05;10.55;;;16.00;99.90;;;;;;5095539;28;20094;-43
2022/10/29 07:50:11;;;;;;;18.00;8.27;;;16.10;99.90;;;;;;5096575;28;20028;-41
2022/10/29 07:52:38;;;;;;;21.98;8.68;;;16.10;99.90;;;;;;5098112;28;20055;-43
2022/10/29 07:55:05;;;;;;;19.58;10.52;;;16.20;99.90;;;;;;5096489;28;20426;-42
2022/10/29 07:57:30;;;;;;;19.05;10.07;;;16.30;99.90;;;;;;5096136;28;20024;-38
2022/10/29 07:59:56;;;;;;;18.75;8.82;;;16.30;99.90;;;;;;5095840;28;20049;-35
2022/10/29 08:02:21;;;;;;;25.75;9.43;;;16.40;99.90;;;;;;5104724;28;20028;-39
2022/10/29 08:04:47;;;;;;;23.13;9.10;;;16.50;99.90;;;;;;5102191;28;20036;-41
2022/10/29 08:07:13;;;;;;;19.15;8.77;;;16.50;99.90;;;;;;5095372;28;20499;-43
2022/10/29 08:09:39;;;;;;;21.55;10.75;;;16.50;99.90;;;;;;5109581;28;20028;-43
2022/10/29 08:12:07;;;;;;;22.10;8.75;;;16.50;99.90;;;;;;5096441;28;20458;-44
2022/10/29 08:14:32;;;;;;;;;;;16.60;99.90;;;;;;5110992;28;20099;-57
2022/10/29 08:16:58;;;;;;;22.90;9.02;;;16.70;99.90;;;;;;5094653;28;20348;-43
2022/10/29 08:19:24;;;;;;;21.05;9.15;;;16.70;99.90;;;;;;5094585;28;20072;-41
2022/10/29 08:21:49;;;;;;;25.83;9.32;;;16.80;99.90;;;;;;5106389;28;20035;-44
2022/10/29 08:24:15;;;;;;;29.35;9.77;;;16.90;99.90;;;;;;5094711;28;20031;-44
2022/10/29 08:26:41;;;;;;;18.75;9.38;;;17.00;99.90;;;;;;5093347;28;20138;-46
2022/10/29 08:29:06;;;;;;;26.83;9.93;;;17.10;99.90;;;;;;5096712;28;20051;-43
2022/10/29 08:31:32;;;;;;;15.82;8.80;;;17.20;99.90;;;;;;5101666;28;20111;-45
2022/10/29 08:33:58;;;;;;;22.23;8.68;;;17.30;99.90;;;;;;5111694;27;20024;-51
2022/10/29 08:36:23;;;;;;;21.63;8.30;;;17.40;99.90;;;;;;5111940;27;20076;-43
2022/10/29 08:38:49;;;;;;;25.83;10.07;;;17.50;99.90;;;;;;5104736;28;20027;-41
2022/10/29 08:41:30;;;;;;;26.83;8.13;;;17.60;99.90;;;;;;5100936;28;20028;-41
2022/10/29 08:44:32;;;;;;;25.67;8.98;;;17.60;99.90;;;;;;5099062;28;20024;-41
2022/10/29 08:47:12;;;;;;;21.92;8.50;;;17.70;99.90;;;;;;5091016;27;20044;-39
2022/10/29 08:49:46;;;;;;;19.90;8.73;;;17.80;99.90;;;;;;5123657;27;20507;-42
2022/10/29 08:52:43;;;;;;;27.05;12.93;;;17.90;99.90;;;;;;5098734;28;20119;-42
2022/10/29 08:55:17;;;;;;;19.95;8.55;;;17.90;99.90;;;;;;5099295;28;20479;-40
2022/10/29 08:57:47;;;;;;;22.58;10.50;;;17.90;99.90;;;;;;5099347;28;20084;-41
2022/10/29 09:00:16;;;;;;;18.02;8.93;;;17.90;99.90;;;;;;5100096;28;20026;-42
2022/10/29 09:02:42;;;;;;;20.20;8.55;;;17.90;99.90;;;;;;5111675;28;20483;-43
2022/10/29 09:05:15;;;;;;;21.48;9.88;;;18.00;99.90;;;;;;5103342;28;20036;-42
2022/10/29 09:08:24;;;;;;;18.48;8.45;;;18.10;99.90;;;;;;5114265;28;20027;-43
2022/10/29 09:10:55;;;;;;;24.92;8.30;;;18.10;99.90;;;;;;5037994;28;20144;-40
2022/10/29 09:13:39;;;;;;;23.92;9.95;;;18.20;99.90;;;;;;5098747;28;20357;-40
2022/10/29 09:16:24;;;;;;;18.08;8.10;;;18.20;99.90;;;;;;5103761;28;20030;-42
2022/10/29 09:19:21;;;;;;;22.80;9.32;;;18.20;99.90;;;;;;5093572;28;20028;-42
2022/10/29 09:22:13;;;;;;;16.63;8.57;;;18.30;99.90;;;;;;5096129;28;20681;-47
2022/10/29 09:24:42;;;;;;;25.13;9.55;;;18.40;99.90;;;;;;5112649;28;20120;-40
2022/10/29 09:27:18;;;;;;;17.10;8.70;;;18.40;99.90;;;;;;5113023;28;20038;-44
2022/10/29 09:29:57;;;;;;;25.55;9.13;;;18.40;99.90;;;;;;5112991;28;20034;-43
2022/10/29 09:32:34;;;;;;;21.88;8.82;;;18.50;99.90;;;;;;5102688;28;20093;-44
2022/10/29 09:35:37;;;;;;;24.30;8.27;;;18.40;99.90;;;;;;5099684;28;21656;-44
2022/10/29 09:38:12;;;;;;;23.80;8.48;;;18.40;99.90;;;;;;5086488;28;20097;-39
2022/10/29 09:40:41;;;;;;;21.10;8.98;;;18.40;99.90;;;;;;5104878;28;20379;-44
2022/10/29 09:43:22;;;;;;;25.83;9.88;;;18.40;99.90;;;;;;5094598;28;20674;-41
2022/10/29 09:46:16;;;;;;;25.10;8.63;;;18.40;99.90;;;;;;5095695;28;20043;-40
2022/10/29 09:49:00;;;;;;;21.50;9.20;;;18.40;99.90;;;;;;5102088;28;20519;-36
2022/10/29 09:51:37;;;;;;;16.30;9.00;;;18.50;99.90;;;;;;5100644;28;20069;-43
2022/10/29 09:54:03;;;;;;;18.08;8.80;;;18.40;99.90;;;;;;5107375;28;20540;-42
2022/10/29 09:56:29;;;;;;;16.52;8.57;;;18.40;99.90;;;;;;5107140;28;20529;-42
2022/10/29 09:59:23;;;;;;;21.83;7.88;;;18.40;99.90;;;;;;5110846;27;20016;-41
2022/10/29 10:01:48;;;;;;;20.73;7.57;;;18.40;99.90;;;;;;5106935;28;20040;-41
2022/10/29 10:04:36;;;;;;;19.83;8.02;;;18.50;99.90;;;;;;5096461;28;20494;-44
2022/10/29 10:07:16;;;;;;;15.90;8.00;;;18.50;99.90;;;;;;5101736;28;20486;-43
2022/10/29 10:09:56;;;;;;;15.27;8.50;;;18.60;99.90;;;;;;5095835;28;20480;-40
2022/10/29 10:12:44;;;;;;;16.42;8.52;;;18.70;99.90;;;;;;5095246;28;20476;-39
2022/10/29 10:15:15;;;;;;;;;;;18.90;99.90;;;;;;5093624;28;20021;-40
2022/10/29 10:18:04;;;;;;;20.63;7.28;;;19.00;99.90;;;;;;5110222;28;19961;-35
2022/10/29 10:20:45;;;;;;;21.40;8.05;;;19.10;99.90;;;;;;5106811;28;20480;-38
2022/10/29 10:23:21;;;;;;;22.17;7.78;;;19.30;99.90;;;;;;5092480;28;20422;-36
2022/10/29 10:25:47;;;;;;;22.02;8.15;;;19.40;99.90;;;;;;5093037;28;20500;-35
2022/10/29 10:28:33;;;;;;;18.48;8.43;;;19.40;99.90;;;;;;5096156;28;20140;-38
2022/10/29 10:31:09;;;;;;;16.27;8.38;;;19.50;99.90;;;;;;5110036;28;20624;-35
2022/10/29 10:33:42;;;;;;;20.73;9.10;;;19.60;99.90;;;;;;5109110;28;20077;-38
2022/10/29 10:36:09;;;;;;;17.90;7.97;;;19.80;99.90;;;;;;5097743;28;20028;-38
2022/10/29 10:38:47;;;;;;;23.30;7.45;;;19.80;99.90;;;;;;5092391;28;20541;-37
2022/10/29 10:41:15;;;;;;;19.58;7.25;;;19.90;99.90;;;;;;5091674;28;20028;-32
2022/10/29 10:43:44;;;;;;;17.23;7.28;;;19.90;99.90;;;;;;5092058;28;20026;-34
2022/10/29 10:46:20;;;;;;;12.50;6.68;;;19.80;99.90;;;;;;5091402;28;20396;-35
2022/10/29 10:49:04;;;;;;;18.45;6.93;;;19.90;99.90;;;;;;5090540;28;20098;-36
2022/10/29 10:51:35;;;;;;;14.32;7.15;;;20.10;99.90;;;;;;5094311;28;20476;-34
2022/10/29 10:54:19;;;;;;;16.90;7.03;;;20.40;99.90;;;;;;5091454;28;20498;-40
2022/10/29 10:56:56;;;;;;;16.98;8.52;;;20.50;99.90;;;;;;5092372;28;20435;-40
2022/10/29 10:59:28;;;;;;;8.57;4.97;;;20.60;99.90;;;;;;5089308;28;20036;-42
2022/10/29 11:01:54;;;;;;;14.68;7.38;;;20.60;99.90;;;;;;5094446;28;20274;-37
2022/10/29 11:04:25;;;;;;;19.50;7.18;;;20.60;99.90;;;;;;5091678;28;20020;-40
2022/10/29 11:06:54;;;;;;;20.75;6.93;;;20.70;99.90;;;;;;5097246;28;20481;-34
2022/10/29 11:09:33;;;;;;;16.00;6.15;;;20.70;99.90;;;;;;5094036;28;20020;-34
2022/10/29 11:12:01;;;;;;;11.32;6.55;;;20.80;99.90;;;;;;5090603;28;20070;-37
2022/10/29 11:14:41;;;;;;;12.68;6.95;;;20.80;99.90;;;;;;5096570;28;20020;-35
2022/10/29 11:17:34;;;;;;;12.32;6.13;;;20.70;99.90;;;;;;5106793;28;20503;-36
2022/10/29 11:20:07;;;;;;;19.83;7.30;;;20.60;99.90;;;;;;5087746;28;20097;-34
2022/10/29 11:22:44;;;;;;;15.40;7.38;;;20.60;99.90;;;;;;5096552;28;20074;-35
2022/10/29 11:25:13;;;;;;;;;;;20.70;99.90;;;;;;5096935;28;20503;-39
2022/10/29 11:27:50;;;;;;;14.93;5.97;;;20.80;99.90;;;;;;5114026;28;19908;-42
2022/10/29 11:30:16;;;;;;;;;;;20.80;99.90;;;;;;5094442;28;20099;-40
2022/10/29 11:33:08;;;;;;;22.90;6.53;;;20.70;99.90;;;;;;5102596;28;19916;-38
2022/10/29 11:35:43;;;;;;;10.55;6.32;;;20.70;99.90;;;;;;5110353;28;20330;-35
2022/10/29 11:38:15;;;;;;;15.60;7.13;;;20.80;99.90;;;;;;5101653;28;20475;-33
2022/10/29 11:40:57;;;;;;;15.13;6.47;;;20.80;99.90;;;;;;5114015;28;20038;-37
2022/10/29 11:43:23;;;;;;;17.30;6.93;;;20.80;99.90;;;;;;5099183;28;20609;-36
2022/10/29 11:46:07;;;;;;;13.15;6.18;;;20.90;99.90;;;;;;5094989;28;20060;-36
2022/10/29 11:48:45;;;;;;;16.10;6.45;;;21.00;99.90;;;;;;5097582;28;20036;-39
2022/10/29 11:51:37;;;;;;;11.90;6.53;;;21.10;99.90;;;;;;5096639;28;20032;-34
2022/10/29 11:54:24;;;;;;;13.18;5.28;;;21.10;99.90;;;;;;5096185;28;20052;-44
2022/10/29 11:57:02;;;;;;;13.10;5.55;;;21.30;99.90;;;;;;5098507;28;20419;-45
2022/10/29 11:59:49;;;;;;;10.15;5.00;;;21.30;99.90;;;;;;5101053;28;20031;-46
2022/10/29 12:02:17;;;;;;;14.27;6.00;;;21.40;99.90;;;;;;5115404;28;20480;-43
2022/10/29 12:05:01;;;;;;;13.68;5.90;;;21.60;99.90;;;;;;5101004;28;20032;-42
2022/10/29 12:07:55;;;;;;;10.32;4.90;;;21.70;99.90;;;;;;5108185;28;20032;-44
2022/10/29 12:10:33;;;;;;;8.52;4.38;;;21.80;99.90;;;;;;5109192;28;20471;-45
2022/10/29 12:13:34;;;;;;;15.50;6.45;;;21.90;99.90;;;;;;5114135;28;20502;-43
2022/10/29 12:16:13;;;;;;;14.25;5.38;;;22.00;99.90;;;;;;5092472;28;20028;-46
2022/10/29 12:18:57;;;;;;;9.88;4.88;;;22.10;99.90;;;;;;5098024;28;20031;-45
2022/10/29 12:21:26;;;;;;;20.33;4.45;;;22.30;99.90;;;;;;5093778;28;20061;-38
2022/10/29 12:24:10;;;;;;;8.75;4.88;;;22.40;99.90;;;;;;5098085;28;20513;-42
2022/10/29 12:26:48;;;;;;;16.67;5.70;;;22.50;99.90;;;;;;5093780;28;20032;-44
2022/10/29 12:29:31;;;;;;;8.80;4.95;;;22.70;99.90;;;;;;5097630;28;20039;-44
2022/10/29 12:32:02;;;;;;;18.33;5.32;;;22.80;99.90;;;;;;5090092;28;20479;-38
2022/10/29 12:34:40;;;;;;;12.48;4.68;;;22.90;99.90;;;;;;5092426;28;20020;-50
2022/10/29 12:37:18;;;;;;;11.52;4.90;;;23.00;99.90;;;;;;5092663;28;20016;-43
2022/10/29 12:39:47;;;;;;;14.25;4.68;;;23.00;99.90;;;;;;5094905;28;20059;-45
2022/10/29 12:42:23;;;;;;;10.52;3.97;;;22.80;99.90;;;;;;5105801;28;20051;-44
2022/10/29 12:45:17;;;;;;;8.65;4.03;;;22.70;99.90;;;;;;5100221;28;20030;-45
2022/10/29 12:47:55;;;;;;;12.65;4.32;;;22.60;99.90;;;;;;5094279;28;20536;-45
2022/10/29 12:50:57;;;;;;;13.32;4.47;;;22.50;99.90;;;;;;5093415;28;20068;-44
2022/10/29 12:53:34;;;;;;;13.25;4.18;;;22.50;99.90;;;;;;5104008;28;20048;-43
2022/10/29 12:56:02;;;;;;;11.18;3.50;;;22.50;99.90;;;;;;5102346;28;20035;-46
2022/10/29 12:58:53;;;;;;;18.40;5.13;;;22.50;99.90;;;;;;5102383;28;20383;-44
2022/10/29 13:01:24;;;;;;;17.35;4.25;;;22.50;99.90;;;;;;5111103;28;20480;-45